sensor_id;sensor_type;location;lat;lon;timestamp;pressure;altitude;pressure_sealevel;temperature;humidity
43741;BME280;29352;48.708;9.290;2023-02-16T00:01:54;98878.13;;;-7.08;81.86
43741;BME280;29352;48.708;9.290;2023-02-16T00:04:26;98881.22;;;-7.02;81.63
43741;BME280;29352;48.708;9.290;2023-02-16T00:06:54;98875.88;;;-6.99;81.07
43741;BME280;29352;48.708;9.290;2023-02-16T00:09:21;98881.84;;;-6.81;80.24
43741;BME280;29352;48.708;9.290;2023-02-16T00:11:49;98877.13;;;-6.90;81.07
43741;BME280;29352;48.708;9.290;2023-02-16T00:14:37;98884.91;;;-6.90;80.87
43741;BME280;29352;48.708;9.290;2023-02-16T00:17:04;98881.25;;;-6.86;81.29
43741;BME280;29352;48.708;9.290;2023-02-16T00:22:03;98872.34;;;-7.31;82.95
43741;BME280;29352;48.708;9.290;2023-02-16T00:24:30;98876.97;;;-7.36;82.74
43741;BME280;29352;48.708;9.290;2023-02-16T00:26:57;98877.38;;;-7.28;84.82
43741;BME280;29352;48.708;9.290;2023-02-16T00:29:36;98877.88;;;-7.04;83.59
43741;BME280;29352;48.708;9.290;2023-02-16T00:32:03;98886.53;;;-7.21;82.67
43741;BME280;29352;48.708;9.290;2023-02-16T00:34:36;98879.91;;;-7.26;83.85
43741;BME280;29352;48.708;9.290;2023-02-16T00:37:10;98879.19;;;-7.12;82.79
43741;BME280;29352;48.708;9.290;2023-02-16T00:39:39;98883.56;;;-6.97;83.05
43741;BME280;29352;48.708;9.290;2023-02-16T00:42:18;98871.56;;;-6.67;82.71
43741;BME280;29352;48.708;9.290;2023-02-16T00:44:51;98873.53;;;-6.72;81.92
43741;BME280;29352;48.708;9.290;2023-02-16T00:47:31;98880.44;;;-6.71;82.30
43741;BME280;29352;48.708;9.290;2023-02-16T00:50:23;98877.72;;;-7.01;81.64
43741;BME280;29352;48.708;9.290;2023-02-16T00:52:51;98883.50;;;-7.29;83.79
43741;BME280;29352;48.708;9.290;2023-02-16T00:55:19;98889.63;;;-7.30;82.30
43741;BME280;29352;48.708;9.290;2023-02-16T00:57:55;98876.25;;;-7.06;81.24
43741;BME280;29352;48.708;9.290;2023-02-16T01:00:38;98879.56;;;-7.20;81.42
43741;BME280;29352;48.708;9.290;2023-02-16T01:03:18;98882.69;;;-7.47;82.41
43741;BME280;29352;48.708;9.290;2023-02-16T01:05:47;98880.47;;;-7.54;82.76
43741;BME280;29352;48.708;9.290;2023-02-16T01:08:15;98874.53;;;-7.56;82.99
43741;BME280;29352;48.708;9.290;2023-02-16T01:11:03;98871.13;;;-7.57;82.70
43741;BME280;29352;48.708;9.290;2023-02-16T01:13:37;98873.84;;;-7.60;83.11
43741;BME280;29352;48.708;9.290;2023-02-16T01:16:15;98877.88;;;-7.54;83.41
43741;BME280;29352;48.708;9.290;2023-02-16T01:18:45;98880.00;;;-7.45;82.73
43741;BME280;29352;48.708;9.290;2023-02-16T01:21:12;98875.28;;;-7.54;82.72
43741;BME280;29352;48.708;9.290;2023-02-16T01:23:38;98874.81;;;-7.45;82.28
43741;BME280;29352;48.708;9.290;2023-02-16T01:26:05;98877.97;;;-7.56;83.01
43741;BME280;29352;48.708;9.290;2023-02-16T01:28:38;98874.44;;;-7.38;82.39
43741;BME280;29352;48.708;9.290;2023-02-16T01:31:03;98876.44;;;-7.43;83.07
43741;BME280;29352;48.708;9.290;2023-02-16T01:33:30;98875.25;;;-7.37;81.76
43741;BME280;29352;48.708;9.290;2023-02-16T01:35:56;98874.28;;;-7.52;81.64
43741;BME280;29352;48.708;9.290;2023-02-16T01:38:26;98879.34;;;-7.66;82.14
43741;BME280;29352;48.708;9.290;2023-02-16T01:41:17;98880.72;;;-7.59;81.17
43741;BME280;29352;48.708;9.290;2023-02-16T01:44:17;98869.66;;;-7.63;81.90
43741;BME280;29352;48.708;9.290;2023-02-16T01:46:53;98872.88;;;-7.75;80.83
43741;BME280;29352;48.708;9.290;2023-02-16T01:49:31;98878.50;;;-8.01;82.08
43741;BME280;29352;48.708;9.290;2023-02-16T01:52:05;98869.38;;;-7.91;82.10
43741;BME280;29352;48.708;9.290;2023-02-16T01:54:49;98872.94;;;-7.76;81.94
43741;BME280;29352;48.708;9.290;2023-02-16T01:57:45;98875.53;;;-7.94;80.46
43741;BME280;29352;48.708;9.290;2023-02-16T02:03:21;98871.66;;;-8.39;81.78
43741;BME280;29352;48.708;9.290;2023-02-16T02:06:15;98870.91;;;-8.60;82.52
43741;BME280;29352;48.708;9.290;2023-02-16T02:08:58;98871.63;;;-8.94;83.93
43741;BME280;29352;48.708;9.290;2023-02-16T02:11:35;98865.41;;;-8.71;83.37
43741;BME280;29352;48.708;9.290;2023-02-16T02:14:10;98868.31;;;-8.60;83.36
43741;BME280;29352;48.708;9.290;2023-02-16T02:16:40;98856.22;;;-8.59;84.16
43741;BME280;29352;48.708;9.290;2023-02-16T02:19:21;98851.09;;;-8.24;84.35
43741;BME280;29352;48.708;9.290;2023-02-16T02:31:20;98841.94;;;-7.95;82.56
43741;BME280;29352;48.708;9.290;2023-02-16T02:37:20;98841.16;;;-7.97;83.21
43741;BME280;29352;48.708;9.290;2023-02-16T02:40:32;98835.13;;;-7.98;82.53
43741;BME280;29352;48.708;9.290;2023-02-16T02:43:28;98836.06;;;-7.99;82.86
43741;BME280;29352;48.708;9.290;2023-02-16T02:46:22;98841.94;;;-7.95;81.43
43741;BME280;29352;48.708;9.290;2023-02-16T02:48:52;98841.28;;;-8.35;81.93
43741;BME280;29352;48.708;9.290;2023-02-16T02:51:18;98844.25;;;-8.25;82.14
43741;BME280;29352;48.708;9.290;2023-02-16T02:53:58;98839.97;;;-8.44;81.89
43741;BME280;29352;48.708;9.290;2023-02-16T02:57:07;98840.34;;;-8.34;81.04
43741;BME280;29352;48.708;9.290;2023-02-16T03:00:09;98848.44;;;-8.40;82.14
43741;BME280;29352;48.708;9.290;2023-02-16T03:03:04;98843.78;;;-8.51;82.38
43741;BME280;29352;48.708;9.290;2023-02-16T03:05:38;98848.97;;;-8.70;82.95
43741;BME280;29352;48.708;9.290;2023-02-16T03:08:11;98845.69;;;-8.37;82.37
43741;BME280;29352;48.708;9.290;2023-02-16T03:10:47;98849.13;;;-8.37;81.94
43741;BME280;29352;48.708;9.290;2023-02-16T03:13:43;98837.09;;;-8.20;81.14
43741;BME280;29352;48.708;9.290;2023-02-16T03:16:20;98837.84;;;-8.36;81.26
43741;BME280;29352;48.708;9.290;2023-02-16T03:18:52;98833.78;;;-8.41;81.71
43741;BME280;29352;48.708;9.290;2023-02-16T03:21:39;98841.56;;;-8.41;82.50
43741;BME280;29352;48.708;9.290;2023-02-16T03:24:27;98838.41;;;-7.94;83.60
43741;BME280;29352;48.708;9.290;2023-02-16T03:27:20;98835.81;;;-7.94;83.41
43741;BME280;29352;48.708;9.290;2023-02-16T03:30:11;98834.16;;;-7.95;82.71
43741;BME280;29352;48.708;9.290;2023-02-16T03:32:39;98843.22;;;-7.87;82.61
43741;BME280;29352;48.708;9.290;2023-02-16T03:35:05;98835.03;;;-8.31;81.43
43741;BME280;29352;48.708;9.290;2023-02-16T03:37:33;98846.97;;;-8.46;81.90
43741;BME280;29352;48.708;9.290;2023-02-16T03:39:59;98841.09;;;-8.49;81.32
43741;BME280;29352;48.708;9.290;2023-02-16T03:42:48;98842.75;;;-8.48;82.41
43741;BME280;29352;48.708;9.290;2023-02-16T03:45:15;98832.91;;;-8.40;81.59
43741;BME280;29352;48.708;9.290;2023-02-16T03:47:41;98836.16;;;-8.54;81.72
43741;BME280;29352;48.708;9.290;2023-02-16T03:50:06;98842.25;;;-8.38;81.25
43741;BME280;29352;48.708;9.290;2023-02-16T03:52:32;98832.94;;;-8.23;82.53
43741;BME280;29352;48.708;9.290;2023-02-16T03:54:57;98839.78;;;-8.22;83.09
43741;BME280;29352;48.708;9.290;2023-02-16T03:57:24;98841.44;;;-8.21;82.43
43741;BME280;29352;48.708;9.290;2023-02-16T03:59:50;98850.59;;;-8.14;82.07
43741;BME280;29352;48.708;9.290;2023-02-16T04:02:17;98853.97;;;-8.12;82.75
43741;BME280;29352;48.708;9.290;2023-02-16T04:04:43;98860.59;;;-8.06;83.07
43741;BME280;29352;48.708;9.290;2023-02-16T04:07:08;98864.09;;;-8.07;82.10
43741;BME280;29352;48.708;9.290;2023-02-16T04:09:34;98849.56;;;-8.10;82.21
43741;BME280;29352;48.708;9.290;2023-02-16T04:11:59;98858.16;;;-8.09;81.58
43741;BME280;29352;48.708;9.290;2023-02-16T04:14:43;98862.88;;;-8.53;81.75
43741;BME280;29352;48.708;9.290;2023-02-16T04:17:09;98863.34;;;-8.45;81.39
43741;BME280;29352;48.708;9.290;2023-02-16T04:19:34;98858.66;;;-8.37;82.23
43741;BME280;29352;48.708;9.290;2023-02-16T04:22:00;98866.41;;;-8.37;80.60
43741;BME280;29352;48.708;9.290;2023-02-16T04:24:25;98863.66;;;-8.34;80.31
43741;BME280;29352;48.708;9.290;2023-02-16T04:26:51;98866.38;;;-8.18;80.31
43741;BME280;29352;48.708;9.290;2023-02-16T04:29:16;98864.56;;;-8.16;79.16
43741;BME280;29352;48.708;9.290;2023-02-16T04:31:41;98870.78;;;-8.57;81.94
43741;BME280;29352;48.708;9.290;2023-02-16T04:34:07;98872.06;;;-8.48;82.47
43741;BME280;29352;48.708;9.290;2023-02-16T04:36:32;98865.00;;;-8.44;82.24
43741;BME280;29352;48.708;9.290;2023-02-16T04:38:58;98870.31;;;-8.28;81.99
43741;BME280;29352;48.708;9.290;2023-02-16T04:41:24;98877.47;;;-8.52;82.32
43741;BME280;29352;48.708;9.290;2023-02-16T04:43:50;98871.44;;;-8.34;84.04
43741;BME280;29352;48.708;9.290;2023-02-16T04:46:16;98874.19;;;-8.37;82.88
43741;BME280;29352;48.708;9.290;2023-02-16T04:48:44;98873.91;;;-8.14;81.09
43741;BME280;29352;48.708;9.290;2023-02-16T04:51:09;98874.53;;;-8.08;81.09
43741;BME280;29352;48.708;9.290;2023-02-16T04:53:35;98873.88;;;-8.31;81.36
43741;BME280;29352;48.708;9.290;2023-02-16T04:56:01;98877.25;;;-8.29;82.24
43741;BME280;29352;48.708;9.290;2023-02-16T04:58:26;98870.78;;;-8.20;83.17
43741;BME280;29352;48.708;9.290;2023-02-16T05:00:52;98870.31;;;-8.28;81.61
43741;BME280;29352;48.708;9.290;2023-02-16T05:03:17;98871.06;;;-8.44;81.73
43741;BME280;29352;48.708;9.290;2023-02-16T05:05:43;98866.22;;;-8.51;82.21
43741;BME280;29352;48.708;9.290;2023-02-16T05:08:08;98861.75;;;-8.67;81.42
43741;BME280;29352;48.708;9.290;2023-02-16T05:10:34;98864.22;;;-8.64;81.23
43741;BME280;29352;48.708;9.290;2023-02-16T05:13:00;98857.28;;;-8.63;83.51
43741;BME280;29352;48.708;9.290;2023-02-16T05:15:44;98857.88;;;-8.58;81.91
43741;BME280;29352;48.708;9.290;2023-02-16T05:18:10;98864.63;;;-8.54;81.63
43741;BME280;29352;48.708;9.290;2023-02-16T05:20:35;98867.53;;;-8.62;80.60
43741;BME280;29352;48.708;9.290;2023-02-16T05:23:19;98869.81;;;-8.92;80.68
43741;BME280;29352;48.708;9.290;2023-02-16T05:25:45;98878.47;;;-8.74;81.52
43741;BME280;29352;48.708;9.290;2023-02-16T05:28:10;98875.47;;;-8.65;83.77
43741;BME280;29352;48.708;9.290;2023-02-16T05:30:35;98875.41;;;-8.63;82.13
43741;BME280;29352;48.708;9.290;2023-02-16T05:33:01;98882.25;;;-8.81;81.03
43741;BME280;29352;48.708;9.290;2023-02-16T05:35:26;98884.09;;;-8.64;83.23
43741;BME280;29352;48.708;9.290;2023-02-16T05:37:52;98881.41;;;-8.63;83.37
43741;BME280;29352;48.708;9.290;2023-02-16T05:40:17;98884.34;;;-8.70;81.57
43741;BME280;29352;48.708;9.290;2023-02-16T05:42:43;98884.34;;;-8.70;80.94
43741;BME280;29352;48.708;9.290;2023-02-16T05:45:09;98890.28;;;-8.87;83.08
43741;BME280;29352;48.708;9.290;2023-02-16T05:47:34;98887.84;;;-8.90;84.17
43741;BME280;29352;48.708;9.290;2023-02-16T05:50:00;98880.50;;;-8.43;82.30
43741;BME280;29352;48.708;9.290;2023-02-16T05:52:25;98889.25;;;-8.64;81.60
43741;BME280;29352;48.708;9.290;2023-02-16T05:54:51;98892.59;;;-9.00;84.83
43741;BME280;29352;48.708;9.290;2023-02-16T05:57:16;98894.50;;;-7.93;82.03
43741;BME280;29352;48.708;9.290;2023-02-16T05:59:41;98894.00;;;-8.55;81.06
43741;BME280;29352;48.708;9.290;2023-02-16T06:02:07;98892.75;;;-8.65;82.09
43741;BME280;29352;48.708;9.290;2023-02-16T06:04:34;98891.09;;;-8.85;82.28
43741;BME280;29352;48.708;9.290;2023-02-16T06:07:00;98900.81;;;-8.71;82.26
43741;BME280;29352;48.708;9.290;2023-02-16T06:09:25;98898.50;;;-8.77;82.51
43741;BME280;29352;48.708;9.290;2023-02-16T06:11:51;98901.63;;;-8.71;81.84
43741;BME280;29352;48.708;9.290;2023-02-16T06:14:19;98905.91;;;-8.51;83.03
43741;BME280;29352;48.708;9.290;2023-02-16T06:16:47;98909.97;;;-8.64;82.53
43741;BME280;29352;48.708;9.290;2023-02-16T06:19:16;98911.47;;;-8.41;82.95
43741;BME280;29352;48.708;9.290;2023-02-16T06:21:44;98910.94;;;-8.67;83.40
43741;BME280;29352;48.708;9.290;2023-02-16T06:24:12;98919.16;;;-8.96;82.21
43741;BME280;29352;48.708;9.290;2023-02-16T06:26:38;98918.63;;;-9.03;82.38
43741;BME280;29352;48.708;9.290;2023-02-16T06:29:05;98930.38;;;-8.96;81.14
43741;BME280;29352;48.708;9.290;2023-02-16T06:31:31;98929.22;;;-9.09;80.43
43741;BME280;29352;48.708;9.290;2023-02-16T06:33:57;98933.16;;;-9.00;82.44
43741;BME280;29352;48.708;9.290;2023-02-16T06:36:23;98928.81;;;-9.00;80.69
43741;BME280;29352;48.708;9.290;2023-02-16T06:38:49;98929.94;;;-9.06;81.15
43741;BME280;29352;48.708;9.290;2023-02-16T06:41:15;98927.56;;;-8.91;81.41
43741;BME280;29352;48.708;9.290;2023-02-16T06:44:02;98926.88;;;-8.76;80.88
43741;BME280;29352;48.708;9.290;2023-02-16T06:46:29;98933.19;;;-8.63;81.12
43741;BME280;29352;48.708;9.290;2023-02-16T06:48:55;98930.59;;;-8.63;83.30
43741;BME280;29352;48.708;9.290;2023-02-16T06:51:21;98929.31;;;-8.35;81.64
43741;BME280;29352;48.708;9.290;2023-02-16T06:53:46;98922.09;;;-8.10;81.03
43741;BME280;29352;48.708;9.290;2023-02-16T06:56:12;98919.22;;;-7.86;79.14
43741;BME280;29352;48.708;9.290;2023-02-16T06:58:38;98925.19;;;-7.49;79.17
43741;BME280;29352;48.708;9.290;2023-02-16T07:01:03;98927.84;;;-7.51;79.07
43741;BME280;29352;48.708;9.290;2023-02-16T07:03:28;98930.25;;;-7.82;78.52
43741;BME280;29352;48.708;9.290;2023-02-16T07:05:54;98938.69;;;-7.96;80.14
43741;BME280;29352;48.708;9.290;2023-02-16T07:08:19;98938.66;;;-7.77;80.34
43741;BME280;29352;48.708;9.290;2023-02-16T07:10:46;98928.84;;;-7.36;77.43
43741;BME280;29352;48.708;9.290;2023-02-16T07:13:12;98930.81;;;-6.75;74.30
43741;BME280;29352;48.708;9.290;2023-02-16T07:15:37;98929.69;;;-6.22;74.44
43741;BME280;29352;48.708;9.290;2023-02-16T07:18:04;98924.41;;;-5.44;72.42
43741;BME280;29352;48.708;9.290;2023-02-16T07:20:30;98925.50;;;-5.18;70.09
43741;BME280;29352;48.708;9.290;2023-02-16T07:22:56;98925.13;;;-3.86;68.08
43741;BME280;29352;48.708;9.290;2023-02-16T07:25:21;98921.00;;;-3.11;66.18
43741;BME280;29352;48.708;9.290;2023-02-16T07:27:49;98925.56;;;-3.01;66.06
43741;BME280;29352;48.708;9.290;2023-02-16T07:30:15;98914.34;;;-1.92;61.90
43741;BME280;29352;48.708;9.290;2023-02-16T07:32:41;98929.91;;;-2.51;62.55
43741;BME280;29352;48.708;9.290;2023-02-16T07:35:07;98934.69;;;-2.08;63.54
43741;BME280;29352;48.708;9.290;2023-02-16T07:37:33;98920.31;;;-1.19;61.18
43741;BME280;29352;48.708;9.290;2023-02-16T07:39:58;98922.50;;;0.41;58.94
43741;BME280;29352;48.708;9.290;2023-02-16T07:42:24;98919.91;;;1.14;56.67
43741;BME280;29352;48.708;9.290;2023-02-16T07:44:53;98918.31;;;1.23;55.48
43741;BME280;29352;48.708;9.290;2023-02-16T07:47:18;98918.56;;;1.19;53.93
43741;BME280;29352;48.708;9.290;2023-02-16T07:49:44;98924.75;;;-0.63;60.18
43741;BME280;29352;48.708;9.290;2023-02-16T07:52:09;98926.53;;;0.45;58.58
43741;BME280;29352;48.708;9.290;2023-02-16T07:54:35;98929.59;;;1.13;57.08
43741;BME280;29352;48.708;9.290;2023-02-16T07:57:00;98932.59;;;1.70;56.49
43741;BME280;29352;48.708;9.290;2023-02-16T07:59:25;98935.75;;;-0.04;57.05
43741;BME280;29352;48.708;9.290;2023-02-16T08:01:51;98937.44;;;0.62;57.35
43741;BME280;29352;48.708;9.290;2023-02-16T08:04:16;98930.06;;;0.98;57.33
43741;BME280;29352;48.708;9.290;2023-02-16T08:06:42;98935.59;;;1.56;56.04
43741;BME280;29352;48.708;9.290;2023-02-16T08:09:08;98942.06;;;0.69;58.54
43741;BME280;29352;48.708;9.290;2023-02-16T08:11:33;98937.56;;;2.62;54.58
43741;BME280;29352;48.708;9.290;2023-02-16T08:13:59;98944.63;;;1.63;54.68
43741;BME280;29352;48.708;9.290;2023-02-16T08:16:26;98938.72;;;3.16;53.21
43741;BME280;29352;48.708;9.290;2023-02-16T08:18:59;98938.00;;;4.52;49.92
43741;BME280;29352;48.708;9.290;2023-02-16T08:21:31;98938.31;;;3.58;51.89
43741;BME280;29352;48.708;9.290;2023-02-16T08:24:04;98937.09;;;3.98;50.41
43741;BME280;29352;48.708;9.290;2023-02-16T08:26:35;98934.78;;;4.13;50.41
43741;BME280;29352;48.708;9.290;2023-02-16T08:29:05;98937.38;;;2.93;52.45
43741;BME280;29352;48.708;9.290;2023-02-16T08:31:35;98945.69;;;1.51;54.71
43741;BME280;29352;48.708;9.290;2023-02-16T08:34:03;98953.94;;;2.17;55.29
43741;BME280;29352;48.708;9.290;2023-02-16T08:36:35;98942.06;;;1.82;54.97
43741;BME280;29352;48.708;9.290;2023-02-16T08:39:15;98946.97;;;1.66;56.20
43741;BME280;29352;48.708;9.290;2023-02-16T08:41:44;98938.78;;;2.19;55.36
43741;BME280;29352;48.708;9.290;2023-02-16T08:44:12;98936.88;;;2.31;54.31
43741;BME280;29352;48.708;9.290;2023-02-16T08:46:41;98930.50;;;3.19;53.53
43741;BME280;29352;48.708;9.290;2023-02-16T08:49:09;98937.13;;;2.57;55.06
43741;BME280;29352;48.708;9.290;2023-02-16T08:51:40;98934.50;;;2.76;54.34
43741;BME280;29352;48.708;9.290;2023-02-16T08:54:06;98933.94;;;3.94;52.12
43741;BME280;29352;48.708;9.290;2023-02-16T08:56:34;98934.41;;;3.15;54.81
43741;BME280;29352;48.708;9.290;2023-02-16T08:59:00;98931.53;;;2.99;53.31
43741;BME280;29352;48.708;9.290;2023-02-16T09:01:27;98937.94;;;3.71;53.11
43741;BME280;29352;48.708;9.290;2023-02-16T09:03:53;98936.41;;;4.41;51.29
43741;BME280;29352;48.708;9.290;2023-02-16T09:06:20;98935.50;;;3.32;53.07
43741;BME280;29352;48.708;9.290;2023-02-16T09:08:51;98932.22;;;3.01;54.07
43741;BME280;29352;48.708;9.290;2023-02-16T09:11:18;98933.38;;;2.79;53.97
43741;BME280;29352;48.708;9.290;2023-02-16T09:13:44;98927.84;;;4.30;52.33
43741;BME280;29352;48.708;9.290;2023-02-16T09:16:13;98921.97;;;4.36;52.07
43741;BME280;29352;48.708;9.290;2023-02-16T09:18:42;98918.06;;;5.36;51.00
43741;BME280;29352;48.708;9.290;2023-02-16T09:21:21;98912.31;;;5.14;49.90
43741;BME280;29352;48.708;9.290;2023-02-16T09:23:50;98915.97;;;4.34;53.00
43741;BME280;29352;48.708;9.290;2023-02-16T09:26:20;98909.50;;;5.84;49.62
43741;BME280;29352;48.708;9.290;2023-02-16T09:28:48;98904.44;;;6.64;48.83
43741;BME280;29352;48.708;9.290;2023-02-16T09:31:17;98899.97;;;6.24;48.37
43741;BME280;29352;48.708;9.290;2023-02-16T09:33:47;98907.47;;;4.76;52.16
43741;BME280;29352;48.708;9.290;2023-02-16T09:36:13;98912.22;;;4.98;51.24
43741;BME280;29352;48.708;9.290;2023-02-16T09:38:39;98904.94;;;6.44;49.81
43741;BME280;29352;48.708;9.290;2023-02-16T09:41:39;98912.91;;;6.35;48.92
43741;BME280;29352;48.708;9.290;2023-02-16T09:47:00;98920.81;;;6.03;49.75
43741;BME280;29352;48.708;9.290;2023-02-16T09:49:40;98912.66;;;5.80;50.49
43741;BME280;29352;48.708;9.290;2023-02-16T09:54:58;98918.13;;;5.18;51.59
43741;BME280;29352;48.708;9.290;2023-02-16T10:00:14;98917.69;;;4.53;52.64
43741;BME280;29352;48.708;9.290;2023-02-16T10:09:05;98903.22;;;5.17;51.60
43741;BME280;29352;48.708;9.290;2023-02-16T10:11:42;98894.47;;;6.01;50.75
43741;BME280;29352;48.708;9.290;2023-02-16T10:17:16;98893.78;;;7.14;49.70
43741;BME280;29352;48.708;9.290;2023-02-16T10:19:55;98891.44;;;7.27;48.56
43741;BME280;29352;48.708;9.290;2023-02-16T10:22:32;98894.16;;;5.62;51.47
43741;BME280;29352;48.708;9.290;2023-02-16T10:25:20;98889.06;;;5.68;51.25
43741;BME280;29352;48.708;9.290;2023-02-16T10:30:57;98886.06;;;7.35;49.34
43741;BME280;29352;48.708;9.290;2023-02-16T10:37:03;98870.69;;;9.44;45.67
43741;BME280;29352;48.708;9.290;2023-02-16T10:42:36;98867.19;;;9.43;45.46
43741;BME280;29352;48.708;9.290;2023-02-16T10:47:46;98866.19;;;8.62;46.83
43741;BME280;29352;48.708;9.290;2023-02-16T10:50:20;98873.22;;;7.07;48.17
43741;BME280;29352;48.708;9.290;2023-02-16T10:52:48;98868.31;;;7.75;47.42
43741;BME280;29352;48.708;9.290;2023-02-16T10:55:16;98857.09;;;8.19;46.61
43741;BME280;29352;48.708;9.290;2023-02-16T10:57:42;98849.25;;;9.67;45.28
43741;BME280;29352;48.708;9.290;2023-02-16T11:00:17;98848.44;;;9.52;45.31
43741;BME280;29352;48.708;9.290;2023-02-16T11:02:52;98846.63;;;9.08;45.62
43741;BME280;29352;48.708;9.290;2023-02-16T11:08:00;98844.69;;;8.72;46.22
43741;BME280;29352;48.708;9.290;2023-02-16T11:13:04;98836.22;;;10.58;43.55
43741;BME280;29352;48.708;9.290;2023-02-16T11:15:35;98836.72;;;9.82;44.23
43741;BME280;29352;48.708;9.290;2023-02-16T11:18:09;98832.97;;;9.98;44.90
43741;BME280;29352;48.708;9.290;2023-02-16T11:20:53;98825.03;;;10.76;43.78
43741;BME280;29352;48.708;9.290;2023-02-16T11:23:24;98819.81;;;9.60;44.14
43741;BME280;29352;48.708;9.290;2023-02-16T11:28:47;98809.88;;;9.18;44.93
43741;BME280;29352;48.708;9.290;2023-02-16T11:31:38;98808.44;;;9.00;45.21
43741;BME280;29352;48.708;9.290;2023-02-16T11:34:11;98804.06;;;8.70;45.53
43741;BME280;29352;48.708;9.290;2023-02-16T11:36:47;98816.09;;;8.13;45.49
43741;BME280;29352;48.708;9.290;2023-02-16T11:42:05;98803.22;;;9.58;44.36
43741;BME280;29352;48.708;9.290;2023-02-16T11:44:40;98802.84;;;8.95;44.27
43741;BME280;29352;48.708;9.290;2023-02-16T11:47:24;98788.03;;;9.59;43.93
43741;BME280;29352;48.708;9.290;2023-02-16T11:50:22;98787.72;;;9.32;43.13
43741;BME280;29352;48.708;9.290;2023-02-16T11:55:43;98783.19;;;10.83;40.86
43741;BME280;29352;48.708;9.290;2023-02-16T11:58:16;98780.22;;;11.12;41.06
43741;BME280;29352;48.708;9.290;2023-02-16T12:00:53;98778.25;;;11.89;40.30
43741;BME280;29352;48.708;9.290;2023-02-16T12:15:19;98765.00;;;11.00;41.48
43741;BME280;29352;48.708;9.290;2023-02-16T12:18:07;98757.16;;;11.40;40.53
43741;BME280;29352;48.708;9.290;2023-02-16T12:23:53;98743.03;;;11.72;42.04
43741;BME280;29352;48.708;9.290;2023-02-16T12:26:52;98728.44;;;12.01;41.04
43741;BME280;29352;48.708;9.290;2023-02-16T12:43:58;98719.19;;;12.11;41.36
43741;BME280;29352;48.708;9.290;2023-02-16T12:46:37;98711.16;;;12.37;40.88
43741;BME280;29352;48.708;9.290;2023-02-16T12:54:55;98705.22;;;12.28;40.91
43741;BME280;29352;48.708;9.290;2023-02-16T12:57:33;98700.66;;;12.02;41.52
43741;BME280;29352;48.708;9.290;2023-02-16T13:00:24;98689.94;;;11.49;42.26
43741;BME280;29352;48.708;9.290;2023-02-16T13:11:37;98669.41;;;11.63;42.03
43741;BME280;29352;48.708;9.290;2023-02-16T13:14:19;98670.81;;;11.52;42.71
43741;BME280;29352;48.708;9.290;2023-02-16T13:16:58;98662.81;;;11.66;42.77
43741;BME280;29352;48.708;9.290;2023-02-16T13:19:28;98673.97;;;11.01;42.78
43741;BME280;29352;48.708;9.290;2023-02-16T13:23:15;98666.03;;;11.21;42.76
43741;BME280;29352;48.708;9.290;2023-02-16T13:29:01;98657.13;;;11.01;44.14
43741;BME280;29352;48.708;9.290;2023-02-16T13:31:38;98664.09;;;10.95;42.71
43741;BME280;29352;48.708;9.290;2023-02-16T13:38:08;98662.19;;;10.06;44.17
43741;BME280;29352;48.708;9.290;2023-02-16T13:43:56;98662.75;;;10.30;44.48
43741;BME280;29352;48.708;9.290;2023-02-16T13:46:33;98663.09;;;10.20;45.23
43741;BME280;29352;48.708;9.290;2023-02-16T13:49:04;98665.50;;;10.15;44.34
43741;BME280;29352;48.708;9.290;2023-02-16T13:51:42;98657.34;;;10.51;43.82
43741;BME280;29352;48.708;9.290;2023-02-16T13:54:28;98667.03;;;10.59;44.61
43741;BME280;29352;48.708;9.290;2023-02-16T13:56:57;98665.03;;;10.74;44.19
43741;BME280;29352;48.708;9.290;2023-02-16T14:01:51;98659.63;;;10.26;44.61
43741;BME280;29352;48.708;9.290;2023-02-16T14:09:49;98651.84;;;9.97;44.45
43741;BME280;29352;48.708;9.290;2023-02-16T14:15:03;98656.38;;;10.31;44.54
43741;BME280;29352;48.708;9.290;2023-02-16T14:17:33;98656.97;;;10.54;44.44
43741;BME280;29352;48.708;9.290;2023-02-16T14:25:34;98674.25;;;8.80;48.95
43741;BME280;29352;48.708;9.290;2023-02-16T14:30:56;98673.88;;;8.68;49.70
43741;BME280;29352;48.708;9.290;2023-02-16T14:36:18;98668.84;;;8.14;51.06
43741;BME280;29352;48.708;9.290;2023-02-16T14:38:47;98660.03;;;8.14;49.58
43741;BME280;29352;48.708;9.290;2023-02-16T14:43:49;98679.00;;;8.11;50.44
43741;BME280;29352;48.708;9.290;2023-02-16T14:46:56;98681.38;;;7.68;50.37
43741;BME280;29352;48.708;9.290;2023-02-16T14:55:32;98700.09;;;7.28;53.94
43741;BME280;29352;48.708;9.290;2023-02-16T14:58:42;98696.91;;;7.33;52.26
43741;BME280;29352;48.708;9.290;2023-02-16T15:01:17;98696.84;;;7.41;52.11
43741;BME280;29352;48.708;9.290;2023-02-16T15:03:49;98698.13;;;7.45;52.61
43741;BME280;29352;48.708;9.290;2023-02-16T15:06:29;98700.41;;;7.56;53.67
43741;BME280;29352;48.708;9.290;2023-02-16T15:09:02;98700.25;;;7.73;52.69
43741;BME280;29352;48.708;9.290;2023-02-16T15:11:36;98699.34;;;8.03;51.40
43741;BME280;29352;48.708;9.290;2023-02-16T15:14:26;98699.66;;;8.23;50.14
43741;BME280;29352;48.708;9.290;2023-02-16T15:17:05;98695.81;;;8.41;49.89
43741;BME280;29352;48.708;9.290;2023-02-16T15:19:32;98705.69;;;8.02;51.59
43741;BME280;29352;48.708;9.290;2023-02-16T15:22:20;98691.41;;;7.57;53.24
43741;BME280;29352;48.708;9.290;2023-02-16T15:25:02;98702.28;;;7.71;52.74
43741;BME280;29352;48.708;9.290;2023-02-16T15:27:32;98696.47;;;7.90;51.33
43741;BME280;29352;48.708;9.290;2023-02-16T15:30:19;98692.72;;;7.62;51.42
43741;BME280;29352;48.708;9.290;2023-02-16T15:32:50;98687.06;;;7.88;51.16
43741;BME280;29352;48.708;9.290;2023-02-16T15:35:38;98679.06;;;7.65;49.78
43741;BME280;29352;48.708;9.290;2023-02-16T15:38:08;98685.38;;;7.18;50.46
43741;BME280;29352;48.708;9.290;2023-02-16T15:40:35;98668.72;;;7.32;49.27
43741;BME280;29352;48.708;9.290;2023-02-16T15:45:47;98672.25;;;7.47;48.98
43741;BME280;29352;48.708;9.290;2023-02-16T15:48:27;98659.53;;;7.57;48.39
43741;BME280;29352;48.708;9.290;2023-02-16T15:51:01;98663.91;;;7.50;47.86
43741;BME280;29352;48.708;9.290;2023-02-16T15:59:36;98655.19;;;7.19;47.95
43741;BME280;29352;48.708;9.290;2023-02-16T16:04:31;98668.13;;;6.91;49.29
43741;BME280;29352;48.708;9.290;2023-02-16T16:07:04;98674.34;;;6.75;49.27
43741;BME280;29352;48.708;9.290;2023-02-16T16:09:32;98673.41;;;6.51;49.80
43741;BME280;29352;48.708;9.290;2023-02-16T16:12:04;98667.94;;;6.45;49.62